Time;durP1;ratioP1;P1;durP2;ratioP2;P2;SDS_P1;SDS_P2;PMS_P1;PMS_P2;Temp;Humidity;BMP_temperature;BMP_pressure;BME280_temperature;BME280_humidity;BME280_pressure;Samples;Min_cycle;Max_cycle;Signal;HPM_P1;HPM_P2
2022/04/25 00:00:54;;;;;;;7.78;3.50;;;7.30;99.90;;;;;;5068821;28;20227;-67
2022/04/25 00:03:20;;;;;;;11.68;3.40;;;7.30;99.90;;;;;;5061430;28;20054;-66
2022/04/25 00:05:45;;;;;;;7.00;3.55;;;7.30;99.90;;;;;;5049064;28;20032;-67
2022/04/25 00:08:11;;;;;;;8.55;4.25;;;7.30;99.90;;;;;;5051471;28;20555;-67
2022/04/25 00:10:37;;;;;;;11.18;3.58;;;7.30;99.90;;;;;;5051346;28;20029;-67
2022/04/25 00:13:03;;;;;;;7.93;4.07;;;7.30;99.90;;;;;;5051536;28;20044;-67
2022/04/25 00:15:29;;;;;;;6.63;3.22;;;7.30;99.90;;;;;;5051243;28;20035;-67
2022/04/25 00:17:55;;;;;;;8.05;4.00;;;7.30;99.90;;;;;;5051355;28;20075;-66
2022/04/25 00:20:21;;;;;;;7.95;3.35;;;7.30;99.90;;;;;;5051310;28;20025;-66
2022/04/25 00:22:46;;;;;;;7.00;3.60;;;7.30;99.90;;;;;;5050515;28;20032;-66
2022/04/25 00:25:13;;;;;;;8.65;4.13;;;7.20;99.90;;;;;;5054043;28;20025;-66
2022/04/25 00:27:39;;;;;;;6.45;3.58;;;7.20;99.90;;;;;;5067511;28;20041;-66
2022/04/25 00:30:06;;;;;;;7.85;3.85;;;7.20;99.90;;;;;;5070792;28;20020;-66
2022/04/25 00:32:31;;;;;;;6.13;4.00;;;7.20;99.90;;;;;;5070725;28;20025;-66
2022/04/25 00:34:57;;;;;;;11.10;4.00;;;7.10;99.90;;;;;;5070745;28;20028;-68
2022/04/25 00:37:23;;;;;;;8.13;3.75;;;7.10;99.90;;;;;;5070209;28;20397;-68
2022/04/25 00:39:48;;;;;;;9.18;4.40;;;7.10;99.90;;;;;;5070821;28;20021;-68
2022/04/25 00:42:14;;;;;;;10.68;5.63;;;7.10;99.90;;;;;;5070762;28;20107;-68
2022/04/25 00:44:41;;;;;;;8.68;4.25;;;7.10;99.90;;;;;;5070555;28;20431;-68
2022/04/25 00:47:09;;;;;;;7.85;4.55;;;7.10;99.90;;;;;;5070950;28;20032;-68
2022/04/25 00:49:35;;;;;;;7.15;3.85;;;7.10;99.90;;;;;;5070573;28;20027;-68
2022/04/25 00:52:01;;;;;;;9.48;4.07;;;7.10;99.90;;;;;;5070555;28;20048;-68
2022/04/25 00:54:27;;;;;;;8.90;4.40;;;7.20;99.90;;;;;;5070406;28;20063;-68
2022/04/25 00:56:53;;;;;;;11.27;4.50;;;7.20;99.90;;;;;;5070273;28;20028;-68
2022/04/25 00:59:21;;;;;;;12.18;4.65;;;7.20;99.90;;;;;;5070292;28;20024;-68
2022/04/25 01:01:47;;;;;;;12.88;5.25;;;7.20;99.90;;;;;;5069146;28;20025;-68
2022/04/25 01:04:13;;;;;;;18.80;7.38;;;7.10;99.90;;;;;;5066901;28;20077;-68
2022/04/25 01:06:39;;;;;;;10.10;4.30;;;7.10;99.90;;;;;;5068302;28;20085;-68
2022/04/25 01:09:06;;;;;;;10.20;4.60;;;7.10;99.90;;;;;;5070078;28;20020;-68
2022/04/25 01:11:31;;;;;;;8.35;4.65;;;7.10;99.90;;;;;;5069922;28;20043;-67
2022/04/25 01:13:57;;;;;;;9.85;4.72;;;7.10;99.90;;;;;;5069929;28;20025;-69
2022/04/25 01:16:23;;;;;;;11.88;5.45;;;7.10;99.90;;;;;;5069806;28;20120;-66
2022/04/25 01:18:48;;;;;;;9.13;5.65;;;7.00;99.90;;;;;;5069856;28;20024;-66
2022/04/25 01:21:20;;;;;;;8.88;5.07;;;7.00;99.90;;;;;;5069962;28;20027;-66
2022/04/25 01:29:14;;;;;;;9.75;5.57;;;6.90;99.90;;;;;;5070226;28;20122;-66
2022/04/25 01:31:41;;;;;;;12.55;6.25;;;6.90;99.90;;;;;;5069727;28;20071;-66
2022/04/25 01:34:06;;;;;;;8.43;5.55;;;6.90;99.90;;;;;;5069882;28;20543;-66
2022/04/25 01:36:32;;;;;;;13.00;5.70;;;6.80;99.90;;;;;;5069798;28;20040;-66
2022/04/25 01:38:58;;;;;;;13.40;6.32;;;6.80;99.90;;;;;;5069535;28;20043;-66
2022/04/25 01:41:24;;;;;;;11.75;5.60;;;6.90;99.90;;;;;;5069514;28;20412;-67
2022/04/25 01:43:49;;;;;;;8.18;5.38;;;6.90;99.90;;;;;;5069879;28;20489;-66
2022/04/25 01:46:15;;;;;;;12.77;5.72;;;6.80;99.90;;;;;;5068859;28;20166;-66
2022/04/25 01:48:41;;;;;;;14.68;5.75;;;6.70;99.90;;;;;;5067094;28;20482;-66
2022/04/25 01:51:07;;;;;;;7.93;5.20;;;6.70;99.90;;;;;;5065711;28;20052;-66
2022/04/25 01:53:32;;;;;;;13.95;6.00;;;6.70;99.90;;;;;;5066264;28;20413;-66
2022/04/25 01:55:58;;;;;;;12.27;5.53;;;6.60;99.90;;;;;;5066287;28;20040;-67
2022/04/25 01:58:24;;;;;;;13.50;6.82;;;6.60;99.90;;;;;;5066833;28;20025;-66
2022/04/25 02:00:50;;;;;;;11.48;5.45;;;6.60;99.90;;;;;;5066574;28;20033;-66
2022/04/25 02:03:16;;;;;;;22.13;7.78;;;6.50;99.90;;;;;;5066290;28;20039;-67
2022/04/25 02:05:42;;;;;;;12.40;6.80;;;6.50;99.90;;;;;;5069370;28;20500;-66
2022/04/25 02:08:07;;;;;;;12.68;5.32;;;6.40;99.90;;;;;;5068844;28;20017;-66
2022/04/25 02:10:33;;;;;;;11.98;5.82;;;6.30;99.90;;;;;;5066146;28;20089;-67
2022/04/25 02:12:59;;;;;;;13.60;5.88;;;6.30;99.90;;;;;;5053143;28;20033;-66
2022/04/25 02:15:25;;;;;;;11.82;6.32;;;6.30;99.90;;;;;;5046701;28;20033;-66
2022/04/25 02:17:50;;;;;;;10.30;6.03;;;6.20;99.90;;;;;;5046558;28;20037;-66
2022/04/25 02:20:16;;;;;;;10.27;5.82;;;6.20;99.90;;;;;;5049191;28;20032;-66
2022/04/25 02:22:42;;;;;;;11.15;5.63;;;6.20;99.90;;;;;;5049173;28;20021;-66
2022/04/25 02:25:09;;;;;;;11.00;5.72;;;6.30;99.90;;;;;;5055276;28;20028;-66
2022/04/25 02:27:34;;;;;;;10.25;6.32;;;6.40;99.90;;;;;;5069184;28;20086;-67
2022/04/25 02:30:00;;;;;;;13.77;6.25;;;6.40;99.90;;;;;;5069345;28;20036;-66
2022/04/25 02:32:28;;;;;;;10.77;5.45;;;6.50;99.90;;;;;;5069439;28;20055;-66
2022/04/25 02:34:54;;;;;;;15.18;6.60;;;6.50;99.90;;;;;;5069358;28;20423;-66
2022/04/25 02:37:20;;;;;;;13.00;6.00;;;6.50;99.90;;;;;;5068989;28;20481;-66
2022/04/25 02:39:46;;;;;;;14.00;6.15;;;6.60;99.90;;;;;;5069225;28;20389;-66
2022/04/25 02:42:12;;;;;;;10.90;5.68;;;6.60;99.90;;;;;;5069284;28;20040;-66
2022/04/25 02:44:38;;;;;;;11.90;5.85;;;6.60;99.90;;;;;;5069224;28;20384;-67
2022/04/25 02:47:04;;;;;;;10.45;5.50;;;6.60;99.90;;;;;;5068998;28;20459;-66
2022/04/25 02:49:30;;;;;;;11.27;5.63;;;6.60;99.90;;;;;;5069114;28;20533;-66
2022/04/25 02:51:55;;;;;;;10.40;6.15;;;6.70;99.90;;;;;;5069421;28;20119;-66
2022/04/25 02:54:21;;;;;;;11.07;6.00;;;6.70;99.90;;;;;;5069192;28;20085;-66
2022/04/25 02:56:48;;;;;;;12.82;6.30;;;6.80;99.90;;;;;;5068866;28;20024;-66
2022/04/25 02:59:14;;;;;;;18.00;5.72;;;6.90;99.90;;;;;;5069047;28;20025;-66
2022/04/25 03:01:40;;;;;;;16.15;6.13;;;7.00;99.90;;;;;;5069974;28;20032;-66
2022/04/25 03:04:06;;;;;;;14.60;6.13;;;7.10;99.90;;;;;;5072577;28;20064;-66
2022/04/25 03:06:31;;;;;;;14.02;7.15;;;7.30;99.90;;;;;;5070896;28;20036;-66
2022/04/25 03:08:57;;;;;;;11.98;6.38;;;7.30;99.90;;;;;;5072425;28;20495;-66
2022/04/25 03:11:23;;;;;;;11.68;6.13;;;7.40;99.90;;;;;;5072325;28;20021;-67
2022/04/25 03:13:50;;;;;;;11.40;6.00;;;7.40;99.90;;;;;;5072355;28;20105;-66
2022/04/25 03:16:17;;;;;;;11.52;6.50;;;7.50;99.90;;;;;;5072570;28;20032;-67
2022/04/25 03:18:43;;;;;;;9.82;5.55;;;7.50;99.90;;;;;;5071604;28;20102;-65
2022/04/25 03:21:08;;;;;;;11.52;6.63;;;7.60;99.90;;;;;;5072214;28;20068;-66
2022/04/25 03:23:36;;;;;;;11.32;6.13;;;7.60;99.90;;;;;;5072091;28;20024;-66
2022/04/25 03:26:02;;;;;;;13.60;6.53;;;7.60;99.90;;;;;;5072042;28;20089;-66
2022/04/25 03:28:27;;;;;;;12.68;6.72;;;7.70;99.90;;;;;;5072178;28;20107;-68
2022/04/25 03:30:53;;;;;;;19.00;6.63;;;7.70;99.90;;;;;;5072065;28;20104;-66
2022/04/25 03:33:19;;;;;;;13.00;6.32;;;7.70;99.90;;;;;;5072098;28;20103;-65
2022/04/25 03:35:48;;;;;;;12.35;6.20;;;7.70;99.90;;;;;;5072188;28;20082;-65
2022/04/25 03:38:17;;;;;;;14.20;7.25;;;7.70;99.90;;;;;;5071864;28;20025;-67
2022/04/25 03:40:43;;;;;;;12.13;6.60;;;7.60;99.90;;;;;;5072092;28;20028;-66
2022/04/25 03:43:09;;;;;;;12.38;6.00;;;7.60;99.90;;;;;;5071905;28;20039;-66
2022/04/25 03:45:35;;;;;;;10.18;6.18;;;7.60;99.90;;;;;;5071814;28;20024;-67
2022/04/25 03:48:02;;;;;;;16.95;6.47;;;7.60;99.90;;;;;;5071623;28;20441;-66
2022/04/25 03:50:28;;;;;;;10.95;5.85;;;7.60;99.90;;;;;;5071663;28;20025;-66
2022/04/25 03:52:53;;;;;;;10.93;6.78;;;7.60;99.90;;;;;;5071523;28;20051;-66
2022/04/25 03:58:05;;;;;;;14.57;6.65;;;7.50;99.90;;;;;;5071624;28;20499;-66
2022/04/25 04:00:32;;;;;;;13.63;6.57;;;7.50;99.90;;;;;;5071515;28;20033;-66
2022/04/25 04:02:59;;;;;;;12.65;6.60;;;7.50;99.90;;;;;;5071762;28;20086;-66
2022/04/25 04:05:25;;;;;;;10.68;6.53;;;7.40;99.90;;;;;;5071391;28;20119;-66
2022/04/25 04:07:51;;;;;;;12.27;6.63;;;7.40;99.90;;;;;;5071352;28;20040;-68
2022/04/25 04:10:18;;;;;;;11.85;6.75;;;7.40;99.90;;;;;;5070223;28;20027;-66
2022/04/25 04:12:47;;;;;;;13.60;8.15;;;7.40;99.90;;;;;;5068696;28;20032;-66
2022/04/25 04:15:14;;;;;;;15.50;7.07;;;7.40;99.90;;;;;;5070971;28;20017;-66
2022/04/25 04:17:40;;;;;;;12.70;6.55;;;7.50;99.90;;;;;;5067892;28;20098;-68
2022/04/25 04:20:08;;;;;;;13.25;6.53;;;7.50;99.90;;;;;;5068278;28;20396;-66
2022/04/25 04:22:36;;;;;;;12.88;6.68;;;7.50;99.90;;;;;;5071411;28;20035;-66
2022/04/25 04:25:12;;;;;;;13.35;7.78;;;7.60;99.90;;;;;;5070765;28;20058;-66
2022/04/25 04:27:41;;;;;;;13.27;6.75;;;7.60;99.90;;;;;;5070868;28;20389;-66
2022/04/25 04:30:11;;;;;;;20.13;7.65;;;7.70;99.90;;;;;;5071141;28;20029;-66
2022/04/25 04:32:40;;;;;;;13.53;7.47;;;7.70;99.90;;;;;;5067952;28;20396;-66
2022/04/25 04:35:11;;;;;;;12.90;7.22;;;7.70;99.90;;;;;;5067550;28;20028;-66
2022/04/25 04:37:38;;;;;;;12.32;7.22;;;7.70;99.90;;;;;;5068591;28;20085;-66
2022/04/25 04:42:50;;;;;;;12.50;7.22;;;7.70;99.90;;;;;;5070674;28;20043;-67
2022/04/25 04:45:16;;;;;;;16.05;7.80;;;7.70;99.90;;;;;;5070555;28;20024;-66
2022/04/25 04:47:42;;;;;;;11.80;6.70;;;7.80;99.90;;;;;;5070651;28;20044;-67
2022/04/25 04:50:14;;;;;;;11.85;7.32;;;7.80;99.90;;;;;;5070535;28;20066;-66
2022/04/25 04:52:43;;;;;;;12.20;6.82;;;7.70;99.90;;;;;;5070721;28;20033;-67
2022/04/25 04:55:09;;;;;;;11.98;7.30;;;7.70;99.90;;;;;;5070258;28;20024;-67
2022/04/25 04:57:35;;;;;;;15.23;8.02;;;7.70;99.90;;;;;;5070310;28;20028;-67
2022/04/25 05:00:01;;;;;;;11.82;8.10;;;7.70;99.90;;;;;;5068600;28;20028;-67
2022/04/25 05:02:26;;;;;;;18.75;9.23;;;7.70;99.90;;;;;;5067141;28;20020;-67
2022/04/25 05:04:53;;;;;;;11.68;7.10;;;7.80;99.90;;;;;;5067415;28;20401;-67
2022/04/25 05:07:19;;;;;;;12.75;6.88;;;7.80;99.90;;;;;;5065638;28;20040;-67
2022/04/25 05:09:44;;;;;;;13.88;7.63;;;7.80;99.90;;;;;;5066905;28;20024;-67
2022/04/25 05:12:10;;;;;;;14.10;7.75;;;7.80;99.90;;;;;;5067560;28;20148;-67
2022/04/25 05:14:36;;;;;;;12.77;7.13;;;7.80;99.90;;;;;;5070289;28;20111;-67
2022/04/25 05:17:01;;;;;;;12.38;7.07;;;7.90;99.90;;;;;;5070088;28;20078;-67
2022/04/25 05:19:27;;;;;;;12.75;6.68;;;7.90;99.90;;;;;;5070036;28;20021;-67
2022/04/25 05:21:53;;;;;;;10.02;6.18;;;8.00;99.90;;;;;;5069948;28;20036;-66
2022/04/25 05:24:18;;;;;;;10.23;6.43;;;8.00;99.90;;;;;;5069203;28;20056;-66
2022/04/25 05:26:44;;;;;;;13.70;6.47;;;8.10;99.90;;;;;;5069754;28;20400;-66
2022/04/25 05:29:09;;;;;;;12.70;6.53;;;8.10;99.90;;;;;;5069953;28;20025;-66
2022/04/25 05:31:35;;;;;;;12.95;6.38;;;8.10;99.90;;;;;;5068684;28;20032;-66
2022/04/25 05:34:01;;;;;;;11.90;6.32;;;8.20;99.90;;;;;;5066711;28;20032;-68
2022/04/25 05:36:27;;;;;;;11.90;6.97;;;8.20;99.90;;;;;;5067797;28;20041;-68
2022/04/25 05:38:52;;;;;;;12.55;6.57;;;8.20;99.90;;;;;;5069748;28;20095;-66
2022/04/25 05:41:18;;;;;;;7.75;6.18;;;8.30;99.90;;;;;;5069676;28;20019;-66
2022/04/25 05:43:45;;;;;;;12.65;6.95;;;8.30;99.90;;;;;;5069925;28;20430;-67
2022/04/25 05:46:11;;;;;;;11.55;6.40;;;8.30;99.90;;;;;;5069829;28;20064;-67
2022/04/25 05:54:05;;;;;;;15.73;7.25;;;8.30;99.90;;;;;;5069704;28;20389;-67
2022/04/25 05:56:31;;;;;;;14.32;7.45;;;8.30;99.90;;;;;;5067579;28;20028;-66
2022/04/25 05:58:57;;;;;;;11.18;6.43;;;8.30;99.90;;;;;;5066239;28;20012;-67
2022/04/25 06:01:22;;;;;;;12.93;6.57;;;8.30;99.90;;;;;;5067086;28;20269;-66
2022/04/25 06:03:48;;;;;;;15.30;6.78;;;8.30;99.90;;;;;;5067940;28;20454;-66
2022/04/25 06:06:14;;;;;;;17.38;6.78;;;8.40;99.90;;;;;;5048762;28;20043;-67
2022/04/25 06:08:39;;;;;;;11.73;7.05;;;8.40;99.90;;;;;;5046034;28;20409;-65
2022/04/25 06:11:05;;;;;;;12.23;5.85;;;8.40;99.90;;;;;;5048316;28;20100;-66
2022/04/25 06:13:31;;;;;;;8.48;5.57;;;8.40;99.90;;;;;;5046107;28;20433;-68
2022/04/25 06:15:57;;;;;;;12.27;6.07;;;8.50;99.90;;;;;;5045841;28;20395;-68
2022/04/25 06:18:22;;;;;;;13.43;6.15;;;8.50;99.90;;;;;;5050675;28;20060;-67
2022/04/25 06:20:50;;;;;;;10.70;5.88;;;8.60;99.90;;;;;;5069467;28;20028;-67
2022/04/25 06:23:16;;;;;;;10.90;5.82;;;8.60;99.90;;;;;;5068313;28;20066;-67
2022/04/25 06:25:41;;;;;;;12.32;6.85;;;8.60;99.90;;;;;;5066019;28;20040;-67
2022/04/25 06:28:07;;;;;;;13.55;7.50;;;8.60;99.90;;;;;;5065987;28;20044;-67
2022/04/25 06:30:33;;;;;;;15.93;6.72;;;8.70;99.90;;;;;;5068329;28;20028;-67
2022/04/25 06:33:00;;;;;;;13.32;7.30;;;9.00;99.90;;;;;;5069354;28;20036;-66
2022/04/25 06:35:26;;;;;;;15.50;7.97;;;9.20;99.90;;;;;;5069834;28;20120;-66
2022/04/25 06:37:51;;;;;;;13.45;7.18;;;9.30;99.90;;;;;;5072945;28;20020;-66
2022/04/25 06:40:18;;;;;;;14.00;7.80;;;9.30;99.90;;;;;;5072795;28;20413;-66
2022/04/25 06:42:45;;;;;;;17.20;8.48;;;9.20;99.90;;;;;;5072718;28;20450;-67
2022/04/25 06:45:11;;;;;;;15.70;6.75;;;9.40;99.90;;;;;;5072727;28;20032;-67
2022/04/25 06:47:36;;;;;;;13.27;6.43;;;9.60;99.90;;;;;;5072743;28;20033;-67
2022/04/25 06:50:03;;;;;;;15.07;6.40;;;9.70;99.90;;;;;;5072793;28;20025;-67
2022/04/25 06:52:28;;;;;;;10.77;6.60;;;9.80;99.90;;;;;;5072817;28;20036;-66
2022/04/25 06:54:54;;;;;;;11.20;6.68;;;9.80;99.90;;;;;;5072259;28;20028;-67
2022/04/25 06:57:20;;;;;;;11.32;6.10;;;9.60;99.90;;;;;;5069723;28;20055;-67
2022/04/25 06:59:45;;;;;;;12.60;7.10;;;9.70;99.90;;;;;;5068118;28;20032;-67
2022/04/25 07:02:12;;;;;;;13.60;7.53;;;9.70;99.90;;;;;;5069814;28;20439;-66
2022/04/25 07:04:37;;;;;;;12.98;5.90;;;9.60;99.90;;;;;;5069455;28;20025;-66
2022/04/25 07:07:04;;;;;;;9.40;5.72;;;9.80;99.90;;;;;;5069901;28;20094;-66
2022/04/25 07:09:29;;;;;;;10.13;5.28;;;9.90;99.90;;;;;;5071531;28;20025;-67
2022/04/25 07:11:55;;;;;;;9.45;5.60;;;10.00;99.90;;;;;;5072320;28;20727;-67
2022/04/25 07:14:24;;;;;;;8.32;5.22;;;10.00;99.90;;;;;;5072279;28;20028;-67
2022/04/25 07:16:54;;;;;;;12.18;5.45;;;9.90;99.90;;;;;;5072499;28;20024;-67
2022/04/25 07:19:19;;;;;;;9.18;5.68;;;10.00;99.90;;;;;;5072110;28;20346;-68
2022/04/25 07:30:00;;;;;;;11.75;5.10;;;10.70;99.90;;;;;;5072513;28;20074;-68
2022/04/25 07:32:26;;;;;;;10.02;5.30;;;10.90;99.90;;;;;;5071983;28;20028;-68
2022/04/25 07:34:51;;;;;;;7.95;4.97;;;11.30;99.90;;;;;;5072241;28;20185;-68
2022/04/25 07:37:18;;;;;;;10.95;5.25;;;11.40;99.90;;;;;;5071615;28;20057;-68
2022/04/25 07:39:47;;;;;;;8.52;5.03;;;11.50;99.90;;;;;;5071894;28;20067;-67
2022/04/25 07:42:15;;;;;;;7.38;4.30;;;11.50;99.90;;;;;;5071632;28;20027;-67
2022/04/25 07:44:45;;;;;;;9.75;4.45;;;11.50;99.90;;;;;;5070161;28;20024;-68
2022/04/25 07:47:11;;;;;;;8.75;4.10;;;11.70;99.00;;;;;;5070698;28;20032;-68
2022/04/25 07:49:38;;;;;;;9.70;4.45;;;11.70;98.10;;;;;;5071645;28;20074;-68
2022/04/25 07:52:04;;;;;;;11.57;4.65;;;11.80;98.50;;;;;;5071241;28;20033;-69
2022/04/25 07:54:30;;;;;;;7.07;4.10;;;11.80;97.50;;;;;;5071266;28;20404;-68
2022/04/25 07:56:55;;;;;;;9.57;4.90;;;11.90;97.30;;;;;;5071305;28;20477;-69
2022/04/25 07:59:21;;;;;;;11.38;4.70;;;11.80;97.30;;;;;;5071386;28;20081;-68
2022/04/25 08:01:47;;;;;;;11.45;4.35;;;12.00;97.90;;;;;;5071026;28;20107;-68
2022/04/25 08:04:13;;;;;;;10.90;4.60;;;12.00;96.30;;;;;;5071310;28;20050;-68
2022/04/25 08:06:39;;;;;;;9.85;4.38;;;11.90;96.40;;;;;;5071424;28;20067;-68
2022/04/25 08:09:05;;;;;;;7.32;4.00;;;11.90;96.40;;;;;;5066059;28;20055;-68
2022/04/25 08:11:31;;;;;;;10.55;4.47;;;12.10;96.00;;;;;;5051270;28;20409;-68
2022/04/25 08:19:26;;;;;;;8.82;3.92;;;13.10;94.20;;;;;;5051736;28;20135;-68
2022/04/25 08:21:54;;;;;;;8.80;3.80;;;14.50;87.50;;;;;;5049760;28;20067;-68
2022/04/25 08:24:19;;;;;;;8.32;3.35;;;16.30;77.90;;;;;;5048248;28;20021;-68
2022/04/25 08:26:45;;;;;;;7.95;3.00;;;17.30;71.00;;;;;;5066654;28;20040;-68
2022/04/25 08:29:10;;;;;;;5.90;3.47;;;18.40;64.60;;;;;;5069826;28;20059;-68
2022/04/25 08:31:37;;;;;;;7.50;3.03;;;18.10;58.20;;;;;;5071010;28;20030;-69
2022/04/25 08:34:08;;;;;;;8.85;3.70;;;17.80;58.80;;;;;;5070850;28;20028;-68
2022/04/25 08:36:34;;;;;;;7.47;3.60;;;17.40;59.90;;;;;;5070800;28;20408;-68
2022/04/25 08:39:01;;;;;;;9.60;4.03;;;17.00;63.30;;;;;;5071276;28;20697;-68
2022/04/25 08:41:30;;;;;;;7.40;4.30;;;16.30;64.70;;;;;;5070962;28;20024;-66
2022/04/25 08:43:56;;;;;;;7.47;3.38;;;15.60;68.80;;;;;;5070634;28;20362;-66
2022/04/25 08:46:23;;;;;;;6.18;3.80;;;16.60;70.80;;;;;;5070656;28;20074;-68
2022/04/25 08:48:50;;;;;;;9.55;3.85;;;18.30;60.80;;;;;;5070637;28;20024;-67
2022/04/25 08:51:16;;;;;;;8.05;4.53;;;20.00;54.30;;;;;;5070868;28;20021;-68
2022/04/25 08:53:44;;;;;;;8.05;4.50;;;21.30;46.50;;;;;;5070570;28;20560;-68
2022/04/25 08:56:12;;;;;;;10.15;4.85;;;21.90;42.60;;;;;;5070516;28;20512;-70
2022/04/25 08:58:41;;;;;;;10.65;4.43;;;21.40;37.60;;;;;;5070870;28;20037;-71
2022/04/25 09:01:10;;;;;;;7.00;3.70;;;20.10;40.10;;;;;;5070607;28;20121;-71
2022/04/25 09:03:37;;;;;;;9.23;4.65;;;18.40;46.30;;;;;;5070425;28;20378;-69
2022/04/25 09:06:03;;;;;;;7.53;4.05;;;18.20;48.50;;;;;;5069703;28;20029;-70
2022/04/25 09:08:29;;;;;;;7.85;4.00;;;16.60;52.90;;;;;;5070083;28;20107;-69
2022/04/25 09:13:44;;;;;;;5.57;3.83;;;19.00;49.50;;;;;;5070611;28;20044;-69
2022/04/25 09:16:12;;;;;;;8.15;3.67;;;20.40;45.20;;;;;;5070473;28;20025;-68
2022/04/25 09:18:38;;;;;;;8.63;3.75;;;22.10;39.20;;;;;;5070300;28;20027;-69
2022/04/25 09:21:05;;;;;;;5.97;3.65;;;23.60;32.80;;;;;;5070148;28;20021;-68
2022/04/25 09:23:31;;;;;;;6.00;3.35;;;24.60;30.10;;;;;;5068507;28;20531;-69
2022/04/25 09:26:28;;;;;;;5.00;3.20;;;25.90;27.40;;;;;;5066709;28;20029;-69
2022/04/25 09:28:57;;;;;;;8.27;3.60;;;26.30;24.40;;;;;;5068486;28;20040;-70
2022/04/25 09:31:25;;;;;;;5.57;3.60;;;26.90;23.40;;;;;;5068558;28;20020;-67
2022/04/25 09:33:51;;;;;;;5.82;3.45;;;27.40;23.30;;;;;;5066253;28;20066;-67
2022/04/25 09:36:17;;;;;;;6.82;3.10;;;28.10;22.80;;;;;;5067609;28;20041;-68
2022/04/25 09:38:44;;;;;;;8.82;3.72;;;27.90;20.20;;;;;;5068616;28;20040;-68
2022/04/25 09:41:12;;;;;;;8.00;3.58;;;25.40;20.00;;;;;;5069784;28;20519;-68
2022/04/25 09:43:40;;;;;;;7.82;3.42;;;22.60;25.40;;;;;;5067831;28;20046;-72
2022/04/25 09:46:14;;;;;;;4.90;3.20;;;22.70;26.70;;;;;;5062863;28;20039;-70
2022/04/25 09:48:43;;;;;;;9.02;4.18;;;23.70;25.20;;;;;;5067712;28;20039;-70
2022/04/25 09:51:15;;;;;;;8.00;3.17;;;25.80;23.30;;;;;;5058470;28;20104;-73
2022/04/25 09:53:52;;;;;;;4.60;3.03;;;26.70;22.10;;;;;;5049461;28;20021;-74
2022/04/25 09:56:23;;;;;;;7.63;3.25;;;24.30;23.50;;;;;;5064882;28;20029;-74
2022/04/25 09:59:09;;;;;;;6.82;3.85;;;25.90;23.60;;;;;;5069408;28;20024;-73
2022/04/25 10:01:37;;;;;;;3.88;3.10;;;23.10;24.40;;;;;;5069574;28;20451;-74
2022/04/25 10:04:04;;;;;;;5.95;3.65;;;24.70;24.70;;;;;;5052976;28;20504;-72
2022/04/25 10:06:34;;;;;;;5.75;3.33;;;24.30;25.60;;;;;;5062156;28;20514;-76
2022/04/25 10:09:08;;;;;;;5.57;3.25;;;26.20;24.00;;;;;;5069590;28;20052;-76
2022/04/25 10:11:39;;;;;;;5.65;3.38;;;26.30;21.10;;;;;;5071888;28;20059;-74
2022/04/25 10:14:05;;;;;;;5.80;3.50;;;27.40;19.30;;;;;;5073482;28;20033;-76
2022/04/25 10:16:34;;;;;;;5.97;3.35;;;27.20;20.50;;;;;;5073432;28;20028;-75
2022/04/25 10:19:00;;;;;;;7.38;3.13;;;28.10;19.40;;;;;;5073200;28;20503;-72
2022/04/25 10:21:29;;;;;;;10.15;3.70;;;30.10;17.80;;;;;;5073534;28;20024;-72
2022/04/25 10:23:57;;;;;;;4.28;2.65;;;32.30;15.10;;;;;;5071014;28;20028;-75
2022/04/25 10:26:27;;;;;;;4.15;2.83;;;33.20;15.30;;;;;;5069894;28;20032;-74
2022/04/25 10:29:02;;;;;;;8.48;3.35;;;34.00;12.80;;;;;;5071818;28;20025;-76
2022/04/25 10:31:41;;;;;;;3.75;2.70;;;33.80;11.50;;;;;;5071894;28;20032;-76
2022/04/25 10:34:07;;;;;;;8.88;3.70;;;33.40;11.90;;;;;;5072902;28;20029;-74
2022/04/25 10:36:39;;;;;;;6.05;3.40;;;31.80;12.00;;;;;;5073045;28;20067;-74
2022/04/25 10:39:16;;;;;;;4.97;2.85;;;33.00;13.30;;;;;;5067492;28;20397;-73
2022/04/25 10:44:44;;;;;;;4.45;2.72;;;33.50;11.20;;;;;;5050905;28;20541;-72
2022/04/25 10:47:23;;;;;;;6.78;3.20;;;31.30;12.70;;;;;;5052970;28;20512;-72
2022/04/25 10:49:52;;;;;;;4.57;2.88;;;30.50;14.00;;;;;;5051272;28;20128;-73
2022/04/25 10:52:42;;;;;;;5.65;3.45;;;32.70;13.40;;;;;;5049852;28;20017;-74
2022/04/25 10:55:12;;;;;;;5.95;2.92;;;34.10;12.50;;;;;;5057117;28;20032;-74
2022/04/25 10:58:03;;;;;;;5.33;3.07;;;30.40;11.40;;;;;;5072773;28;20024;-74
2022/04/25 11:00:36;;;;;;;3.97;3.13;;;34.10;12.70;;;;;;5072438;28;20706;-74
2022/04/25 11:03:17;;;;;;;7.00;3.60;;;35.30;11.20;;;;;;5072483;28;20028;-73
2022/04/25 11:05:44;;;;;;;4.38;3.15;;;31.30;10.00;;;;;;5072515;28;20120;-73
2022/04/25 11:08:16;;;;;;;5.88;3.63;;;31.00;11.70;;;;;;5072427;28;20044;-73
2022/04/25 11:10:56;;;;;;;6.45;3.33;;;27.90;14.50;;;;;;5071949;28;20021;-73
2022/04/25 11:13:24;;;;;;;6.50;3.60;;;24.60;17.20;;;;;;5070698;28;20388;-74
2022/04/25 11:15:51;;;;;;;6.50;3.63;;;22.70;20.60;;;;;;5068403;28;20021;-73
2022/04/25 11:18:33;;;;;;;7.35;3.50;;;26.40;19.70;;;;;;5069236;28;20166;-75
2022/04/25 11:21:07;;;;;;;6.45;3.47;;;29.10;15.90;;;;;;5069058;28;20089;-73
2022/04/25 11:23:45;;;;;;;8.98;3.42;;;32.40;13.10;;;;;;5068054;28;20519;-74
2022/04/25 11:26:23;;;;;;;6.70;3.35;;;34.60;11.20;;;;;;5068632;28;20028;-73
2022/04/25 11:29:09;;;;;;;6.63;3.35;;;35.90;9.30;;;;;;5069240;28;20060;-74
2022/04/25 11:31:36;;;;;;;6.40;3.25;;;32.50;9.60;;;;;;5068929;28;20028;-74
2022/04/25 11:34:11;;;;;;;6.13;2.83;;;28.80;12.20;;;;;;5069218;28;20469;-75
2022/04/25 11:36:42;;;;;;;6.45;3.20;;;25.70;15.50;;;;;;5068884;28;20057;-74
2022/04/25 11:41:52;;;;;;;3.33;2.63;;;31.10;14.20;;;;;;5069261;28;20035;-75
2022/04/25 11:44:18;;;;;;;5.55;3.20;;;34.10;11.50;;;;;;5069044;28;20742;-76
2022/04/25 11:46:46;;;;;;;5.05;3.22;;;35.10;9.60;;;;;;5068805;28;20041;-74
2022/04/25 11:49:12;;;;;;;5.45;3.17;;;35.90;8.90;;;;;;5068543;28;20085;-73
2022/04/25 11:51:40;;;;;;;5.28;2.78;;;33.60;8.10;;;;;;5069034;28;20034;-73
2022/04/25 11:54:10;;;;;;;4.05;2.92;;;34.80;8.00;;;;;;5068577;28;20021;-72
2022/04/25 11:56:40;;;;;;;3.47;3.17;;;35.00;7.70;;;;;;5068481;28;20036;-71
2022/04/25 11:59:08;;;;;;;5.22;3.40;;;36.00;7.80;;;;;;5068646;28;20059;-72
2022/04/25 12:01:40;;;;;;;5.55;3.13;;;36.60;7.60;;;;;;5068556;28;20060;-72
2022/04/25 12:04:28;;;;;;;5.38;3.10;;;33.50;8.10;;;;;;5059212;28;20029;-72
2022/04/25 12:06:56;;;;;;;3.85;3.20;;;30.50;9.40;;;;;;5048371;28;20116;-72
2022/04/25 12:17:51;;;;;;;6.93;3.47;;;21.70;19.90;;;;;;5048227;28;20044;-72
2022/04/25 12:20:28;;;;;;;5.50;3.50;;;20.70;23.70;;;;;;5050159;28;20057;-71
2022/04/25 12:22:58;;;;;;;6.03;3.67;;;19.60;24.90;;;;;;5050397;28;20061;-72
2022/04/25 12:25:26;;;;;;;4.43;3.08;;;18.50;28.70;;;;;;5055754;28;20031;-70
2022/04/25 12:28:26;;;;;;;6.30;3.72;;;17.90;29.10;;;;;;5068010;28;20189;-71
2022/04/25 12:30:58;;;;;;;6.57;3.50;;;18.00;34.00;;;;;;5070550;28;20029;-65
2022/04/25 12:33:31;;;;;;;7.05;4.00;;;18.20;34.40;;;;;;5070781;28;20111;-77
2022/04/25 12:36:21;;;;;;;7.90;3.70;;;19.00;33.00;;;;;;5070865;28;20063;-77
2022/04/25 12:38:50;;;;;;;7.95;3.50;;;19.50;30.00;;;;;;5070589;28;20545;-76
2022/04/25 12:41:21;;;;;;;5.55;3.72;;;19.60;29.00;;;;;;5070670;28;20024;-75
2022/04/25 12:43:49;;;;;;;4.95;3.42;;;19.50;29.40;;;;;;5070726;28;20059;-75
2022/04/25 12:46:18;;;;;;;8.00;3.97;;;18.90;29.50;;;;;;5070527;28;20550;-75
2022/04/25 12:48:56;;;;;;;6.22;3.35;;;18.70;30.40;;;;;;5070824;28;20020;-75
2022/04/25 12:51:44;;;;;;;5.88;3.45;;;18.50;31.00;;;;;;5070630;28;20051;-77
2022/04/25 12:54:33;;;;;;;9.73;4.60;;;18.40;31.50;;;;;;5070339;28;20082;-74
2022/04/25 12:57:05;;;;;;;5.47;3.38;;;18.00;31.30;;;;;;5070225;28;20075;-75
2022/04/25 12:59:33;;;;;;;5.38;3.38;;;17.60;31.50;;;;;;5070508;28;20048;-73
2022/04/25 13:02:05;;;;;;;7.38;3.60;;;17.50;31.70;;;;;;5070353;28;20039;-68
2022/04/25 13:04:31;;;;;;;3.80;3.20;;;17.70;34.70;;;;;;5070242;28;20037;-71
2022/04/25 13:06:57;;;;;;;6.28;3.90;;;17.70;34.80;;;;;;5070442;28;20094;-67
2022/04/25 13:09:23;;;;;;;8.32;4.20;;;17.70;35.50;;;;;;5070013;28;20119;-66
2022/04/25 13:11:49;;;;;;;5.60;3.42;;;17.50;37.30;;;;;;5070141;28;20030;-72
2022/04/25 13:14:15;;;;;;;9.50;4.18;;;17.50;38.40;;;;;;5070410;28;20032;-72
2022/04/25 13:16:41;;;;;;;7.18;3.80;;;17.30;39.90;;;;;;5070211;28;20020;-72
2022/04/25 13:19:07;;;;;;;5.70;3.08;;;17.10;41.50;;;;;;5069635;28;20815;-70
2022/04/25 13:21:38;;;;;;;7.65;2.90;;;17.00;39.40;;;;;;5068510;28;20035;-68
2022/04/25 13:24:04;;;;;;;18.05;3.60;;;16.80;42.10;;;;;;5066563;28;20031;-70
2022/04/25 13:26:29;;;;;;;4.32;2.78;;;16.80;40.30;;;;;;5066535;28;20033;-71
2022/04/25 13:28:55;;;;;;;4.03;3.17;;;16.90;41.30;;;;;;5066865;28;20027;-70
2022/04/25 13:31:21;;;;;;;6.45;3.65;;;17.00;42.50;;;;;;5066951;28;20024;-69
2022/04/25 13:33:46;;;;;;;7.18;3.85;;;17.20;41.20;;;;;;5066733;28;20024;-70
2022/04/25 13:36:12;;;;;;;9.70;3.55;;;17.50;40.70;;;;;;5066399;28;20059;-71
2022/04/25 13:38:38;;;;;;;5.93;3.70;;;17.60;41.50;;;;;;5067042;28;20115;-71